Time;durP1;ratioP1;P1;durP2;ratioP2;P2;SDS_P1;SDS_P2;PMS_P1;PMS_P2;Temp;Humidity;BMP_temperature;BMP_pressure;BME280_temperature;BME280_humidity;BME280_pressure;Samples;Min_cycle;Max_cycle;Signal;HPM_P1;HPM_P2
2020/12/02 00:01:20;;;;;;;;;83.67;59.33;;;;;10.66;53.23;99103.53;4860183;28;103342;-82
2020/12/02 00:04:06;;;;;;;;;82.00;58.00;;;;;10.65;53.28;99102.69;4854018;28;103711;-82
2020/12/02 00:06:33;;;;;;;;;77.00;55.33;;;;;10.64;53.17;99109.13;4749650;28;103247;-82
2020/12/02 00:09:06;;;;;;;;;79.00;59.00;;;;;10.64;52.98;99106.41;4844731;28;104049;-82
2020/12/02 00:11:33;;;;;;;;;59.00;37.67;;;;;10.64;53.22;99109.13;4850201;28;102380;-82
2020/12/02 00:14:01;;;;;;;;;81.67;57.00;;;;;10.64;52.95;99111.81;4841027;28;102858;-82
2020/12/02 00:16:29;;;;;;;;;80.00;57.67;;;;;10.62;52.79;99104.94;4817691;28;104369;-82
2020/12/02 00:18:56;;;;;;;;;75.67;55.33;;;;;10.61;52.89;99106.81;4837767;28;106219;-82
2020/12/02 00:21:23;;;;;;;;;78.67;58.67;;;;;10.58;52.94;99107.16;4850151;28;104005;-82
2020/12/02 00:23:53;;;;;;;;;82.00;56.67;;;;;10.58;53.28;99109.88;4848201;28;102712;-82
2020/12/02 00:26:20;;;;;;;;;78.00;57.67;;;;;10.58;53.25;99107.16;4845643;28;103310;-82
2020/12/02 00:28:47;;;;;;;;;81.33;58.00;;;;;10.57;52.89;99110.06;4853181;28;104315;-82
2020/12/02 00:31:13;;;;;;;;;79.67;59.67;;;;;10.56;53.01;99109.25;4854730;28;102537;-82
2020/12/02 00:33:40;;;;;;;;;78.33;59.00;;;;;10.54;52.86;99105.88;4846109;28;105690;-82
2020/12/02 00:36:07;;;;;;;;;78.33;57.67;;;;;10.54;53.11;99108.56;4864275;28;103473;-82
2020/12/02 00:38:34;;;;;;;;;79.67;58.00;;;;;10.51;53.09;99106.25;4862996;28;104076;-82
2020/12/02 00:41:00;;;;;;;;;77.33;58.33;;;;;10.51;52.87;99108.97;4853813;28;104530;-82
2020/12/02 00:43:30;;;;;;;;;75.00;55.33;;;;;10.48;53.46;99111.22;4860306;28;102520;-81
2020/12/02 00:45:59;;;;;;;;;75.33;56.33;;;;;10.48;52.94;99112.06;4857803;28;102133;-81
2020/12/02 00:48:28;;;;;;;;;81.67;57.67;;;;;10.45;53.04;99117.81;4856250;28;103930;-81
2020/12/02 00:50:56;;;;;;;;;76.67;56.67;;;;;10.45;52.85;99112.41;4860395;28;104451;-81
2020/12/02 00:53:29;;;;;;;;;82.33;59.00;;;;;10.46;53.09;99118.66;4864558;28;103582;-81
2020/12/02 00:55:56;;;;;;;;;74.00;57.33;;;;;10.41;53.16;99111.09;4854221;28;103972;-81
2020/12/02 00:58:49;;;;;;;;;75.67;57.67;;;;;10.45;53.01;99123.22;4859854;28;108632;-81
2020/12/02 01:01:21;;;;;;;;;78.67;57.33;;;;;10.43;52.93;99105.53;4796465;28;103823;-82
2020/12/02 01:03:48;;;;;;;;;80.33;58.00;;;;;10.41;52.90;99108.41;4859048;28;104299;-82
2020/12/02 01:06:14;;;;;;;;;79.33;55.33;;;;;10.40;53.17;99114.81;4866776;28;102494;-82
2020/12/02 01:08:43;;;;;;;;;75.00;57.33;;;;;10.40;52.95;99116.72;4854699;28;104077;-81
2020/12/02 01:11:24;;;;;;;;;83.00;59.00;;;;;10.39;52.97;99117.75;4856751;28;102355;-81
2020/12/02 01:13:56;;;;;;;;;75.33;57.33;;;;;10.37;52.98;99115.22;4855185;28;105357;-82
2020/12/02 01:16:31;;;;;;;;;76.67;55.67;;;;;10.38;52.71;99116.91;4847750;28;102576;-82
2020/12/02 01:18:58;;;;;;;;;77.67;57.67;;;;;10.37;53.17;99106.25;4855314;28;108987;-82
2020/12/02 01:21:42;;;;;;;;;79.33;57.00;;;;;10.35;52.58;99116.44;4858027;28;103942;-82
2020/12/02 01:24:12;;;;;;;;;75.00;56.33;;;;;10.35;53.12;99125.38;4754945;28;104112;-82
2020/12/02 01:26:42;;;;;;;;;75.33;58.00;;;;;10.33;52.67;99119.31;4853736;28;104145;-82
2020/12/02 01:29:17;;;;;;;;;75.00;58.33;;;;;10.33;52.80;99119.31;4839298;28;103527;-82
2020/12/02 01:31:46;;;;;;;;;75.33;54.67;;;;;10.30;52.86;99114.28;4860318;28;102871;-82
2020/12/02 01:34:13;;;;;;;;;76.33;56.33;;;;;10.30;52.70;99114.28;4861139;28;103504;-82
2020/12/02 01:37:18;;;;;;;;;78.33;57.00;;;;;10.28;52.85;99109.06;4855200;28;102327;-82
2020/12/02 01:40:10;;;;;;;;;81.00;58.33;;;;;10.27;53.18;99109.25;4791574;28;109041;-82
2020/12/02 01:42:38;;;;;;;;;75.67;56.00;;;;;10.26;52.98;99108.44;4800002;28;102615;-82
2020/12/02 01:45:30;;;;;;;;;84.67;58.00;;;;;10.27;52.92;99103.84;4856985;28;104406;-82
2020/12/02 01:48:06;;;;;;;;;77.00;56.33;;;;;10.26;52.98;99110.28;4849458;28;103325;-82
2020/12/02 01:50:44;;;;;;;;;79.33;57.00;;;;;10.25;52.88;99105.91;4853342;28;103892;-82
2020/12/02 01:53:14;;;;;;;;;76.67;57.33;;;;;10.24;52.84;99112.31;4869982;28;102964;-82
2020/12/02 01:55:55;;;;;;;;;79.67;58.00;;;;;10.22;52.51;99111.69;4859045;28;102418;-82
2020/12/02 01:58:54;;;;;;;;;78.67;58.67;;;;;10.22;52.80;99111.69;4849308;28;103314;-82
2020/12/02 02:01:27;;;;;;;;;76.67;57.00;;;;;10.22;52.74;99114.41;4784965;28;109742;-81
2020/12/02 02:03:54;;;;;;;;;77.00;56.33;;;;;10.20;52.65;99109.16;4848549;28;102531;-81
2020/12/02 02:06:26;;;;;;;;;77.67;56.33;;;;;10.20;52.55;99108.31;4852064;28;104108;-81
2020/12/02 02:08:53;;;;;;;;;76.33;58.00;;;;;10.19;52.85;99122.84;4842183;28;102279;-81
2020/12/02 02:11:21;;;;;;;;;78.67;54.67;;;;;10.19;52.85;99114.75;4854489;28;103048;-81
2020/12/02 02:14:24;;;;;;;;;72.67;57.33;;;;;10.20;52.72;99111.88;4856219;28;104101;-81
2020/12/02 02:16:51;;;;;;;;;76.33;54.33;;;;;10.18;52.68;99104.97;4765896;28;109305;-81
2020/12/02 02:19:23;;;;;;;;;76.33;55.67;;;;;10.16;52.89;99115.97;4863232;28;102572;-81
2020/12/02 02:21:52;;;;;;;;;77.33;54.00;;;;;10.15;52.88;99105.31;4855904;28;103620;-81
2020/12/02 02:24:20;;;;;;;;;72.33;54.33;;;;;10.15;52.61;99111.59;4853133;28;103344;-81
2020/12/02 02:26:55;;;;;;;;;71.33;54.00;;;;;10.14;52.82;99103.63;4855456;28;102614;-81
2020/12/02 02:29:32;;;;;;;;;72.00;53.67;;;;;10.13;52.75;99107.38;4871342;28;104126;-81
2020/12/02 02:32:13;;;;;;;;;78.67;56.33;;;;;10.11;52.49;99102.13;4828868;28;108190;-81
2020/12/02 02:34:45;;;;;;;;;78.00;54.33;;;;;10.10;52.82;99103.16;4853330;28;102578;-81
2020/12/02 02:37:13;;;;;;;;;75.33;56.33;;;;;10.11;53.14;99104.84;4856387;28;102097;-81
2020/12/02 02:39:41;;;;;;;;;78.00;54.00;;;;;10.10;52.67;99102.31;4855936;28;103480;-81
2020/12/02 02:42:25;;;;;;;;;75.00;55.67;;;;;10.09;52.65;99106.03;4853513;28;104045;-81
2020/12/02 02:44:52;;;;;;;;;78.33;55.00;;;;;10.09;52.54;99103.34;4850380;28;103198;-81
2020/12/02 02:47:19;;;;;;;;;76.33;55.67;;;;;10.07;52.55;99102.69;4852825;28;103585;-81
2020/12/02 02:49:46;;;;;;;;;76.33;55.67;;;;;10.05;52.72;99099.34;4860519;28;102585;-81
2020/12/02 02:52:12;;;;;;;;;73.33;56.00;;;;;10.04;52.64;99103.88;4847763;28;104001;-81
2020/12/02 02:54:40;;;;;;;;;74.00;54.67;;;;;10.04;52.72;99108.47;4849729;28;102504;-81
2020/12/02 02:57:06;;;;;;;;;73.67;55.33;;;;;10.03;52.25;99096.84;4847625;28;102486;-81
2020/12/02 02:59:33;;;;;;;;;75.33;54.67;;;;;10.04;52.44;99092.28;4851866;28;102221;-81
2020/12/02 03:02:00;;;;;;;;;71.67;53.33;;;;;10.02;52.87;99094.31;4853051;28;104075;-81
2020/12/02 03:04:26;;;;;;;;;75.67;55.67;;;;;10.02;52.50;99094.31;4856302;28;103057;-81
2020/12/02 03:06:53;;;;;;;;;71.33;55.00;;;;;10.01;52.73;99088.06;4849348;28;103284;-81
2020/12/02 03:09:19;;;;;;;;;72.00;54.67;;;;;10.02;52.87;99091.59;4823808;28;104338;-81
2020/12/02 03:11:47;;;;;;;;;71.67;53.67;;;;;10.04;52.37;99097.69;4854369;28;104714;-81
2020/12/02 03:14:13;;;;;;;;;75.33;54.67;;;;;10.03;52.65;99096.84;4839729;28;103852;-82
2020/12/02 03:16:53;;;;;;;;;71.33;54.00;;;;;10.04;52.53;99092.28;4855738;28;102225;-82
2020/12/02 03:19:25;;;;;;;;;76.00;54.33;;;;;10.04;51.86;99098.50;4832199;28;102890;-82
2020/12/02 03:21:53;;;;;;;;;73.00;54.00;;;;;10.02;52.17;99089.75;4858506;28;104116;-82
2020/12/02 03:24:20;;;;;;;;;71.67;52.67;;;;;10.03;52.21;99091.44;4846320;28;105439;-83
2020/12/02 03:26:47;;;;;;;;;70.00;54.67;;;;;10.04;52.28;99092.28;4854297;28;102598;-82
2020/12/02 03:29:14;;;;;;;;;71.33;53.67;;;;;10.02;52.46;99086.19;4858453;28;103399;-83
2020/12/02 03:31:41;;;;;;;;;69.67;53.00;;;;;10.02;52.07;99094.31;4855816;28;104176;-83
2020/12/02 03:34:10;;;;;;;;;73.00;52.67;;;;;10.02;52.21;99097.00;4852556;28;104009;-82
2020/12/02 03:36:37;;;;;;;;;73.33;55.00;;;;;9.99;52.14;99094.69;4851809;28;102501;-82
2020/12/02 03:39:04;;;;;;;;;68.33;52.00;;;;;9.96;52.29;99095.88;4857233;28;106788;-82
2020/12/02 03:41:31;;;;;;;;;74.00;52.67;;;;;9.96;52.27;99095.03;4850983;28;104218;-82
2020/12/02 03:43:58;;;;;;;;;69.00;50.00;;;;;9.94;52.13;99100.66;4859790;28;102587;-83
2020/12/02 03:46:24;;;;;;;;;76.00;55.33;;;;;9.94;52.31;99107.91;4860079;28;104124;-82
2020/12/02 03:48:51;;;;;;;;;69.33;54.00;;;;;9.93;52.13;99095.41;4855493;28;103452;-83
2020/12/02 03:51:18;;;;;;;;;70.67;52.33;;;;;9.92;51.80;99099.13;4856634;28;103931;-83
2020/12/02 03:53:44;;;;;;;;;65.67;52.33;;;;;9.92;52.11;99105.38;4858659;28;102825;-83
2020/12/02 03:56:11;;;;;;;;;69.67;51.00;;;;;9.91;52.54;99102.84;4853856;28;102651;-82
2020/12/02 03:58:38;;;;;;;;;71.33;52.67;;;;;9.91;51.76;99102.84;4860502;28;102452;-82
2020/12/02 04:01:04;;;;;;;;;70.33;53.33;;;;;9.89;51.89;99099.50;4856826;28;104146;-82
2020/12/02 04:03:31;;;;;;;;;64.00;51.33;;;;;9.88;52.29;99103.22;4853188;28;102653;-82
2020/12/02 04:05:58;;;;;;;;;70.33;49.33;;;;;9.87;51.94;99097.00;4859965;28;103362;-83
2020/12/02 04:08:24;;;;;;;;;68.33;51.00;;;;;9.91;51.59;99098.28;4859007;28;104155;-82
2020/12/02 04:10:51;;;;;;;;;65.67;51.67;;;;;9.94;51.40;99092.53;4857719;28;104243;-83
2020/12/02 04:13:17;;;;;;;;;70.33;53.33;;;;;9.94;51.93;99092.53;4845796;28;104089;-82
2020/12/02 04:15:45;;;;;;;;;71.00;52.33;;;;;9.97;51.87;99094.03;4823015;28;106352;-83
2020/12/02 04:18:13;;;;;;;;;72.00;51.00;;;;;10.03;51.78;99101.41;4822160;28;104388;-82
2020/12/02 04:20:40;;;;;;;;;72.00;54.33;;;;;10.08;51.58;99107.94;4826933;28;104246;-82
2020/12/02 04:23:07;;;;;;;;;65.33;50.00;;;;;10.14;51.45;99109.88;4857309;28;102710;-82
2020/12/02 04:25:33;;;;;;;;;68.00;50.67;;;;;10.18;51.47;99104.97;4856380;28;102486;-82
2020/12/02 04:28:00;;;;;;;;;64.33;46.33;;;;;10.22;51.37;99114.41;4863073;28;105762;-81
2020/12/02 04:30:26;;;;;;;;;65.33;51.00;;;;;10.26;51.01;99118.41;4855813;28;108852;-81
2020/12/02 04:32:53;;;;;;;;;69.67;50.00;;;;;10.27;51.12;99109.25;4853831;28;102560;-81
2020/12/02 04:35:20;;;;;;;;;66.00;49.25;;;;;10.30;51.11;99119.69;4859301;28;103284;-82
2020/12/02 04:37:46;;;;;;;;;69.00;52.00;;;;;10.31;50.91;99126.78;4864662;28;103597;-82
2020/12/02 04:40:24;;;;;;;;;66.00;50.25;;;;;10.32;50.89;99124.91;4858281;28;104047;-82
2020/12/02 04:42:55;;;;;;;;;71.67;51.00;;;;;10.32;50.88;99125.75;4860704;28;102911;-82
2020/12/02 04:45:22;;;;;;;;;66.50;50.00;;;;;10.34;50.68;99125.56;4842686;28;102542;-82
2020/12/02 04:47:48;;;;;;;;;65.50;50.00;;;;;10.35;51.20;99124.53;4854077;28;102174;-82
2020/12/02 04:50:22;;;;;;;;;68.00;50.25;;;;;10.33;50.51;99127.44;4852476;28;105012;-81
2020/12/02 04:53:11;;;;;;;;;68.25;51.25;;;;;10.34;50.48;99126.41;4857595;28;102373;-81
2020/12/02 04:55:40;;;;;;;;;69.00;50.00;;;;;10.31;50.76;99132.19;4804407;28;102686;-83
2020/12/02 04:58:18;;;;;;;;;68.25;51.75;;;;;10.31;50.91;99125.94;4846358;28;103531;-83
2020/12/02 05:00:45;;;;;;;;;66.50;49.50;;;;;10.33;50.79;99127.44;4859791;28;105618;-83
2020/12/02 05:03:14;;;;;;;;;68.50;50.00;;;;;10.35;50.65;99125.38;4865385;28;103448;-82
2020/12/02 05:05:41;;;;;;;;;62.50;46.25;;;;;10.36;50.77;99131.63;4856315;28;102423;-83
2020/12/02 05:08:28;;;;;;;;;65.75;48.25;;;;;10.38;50.29;99143.94;4874097;28;103421;-82
2020/12/02 05:10:55;;;;;;;;;66.00;48.00;;;;;10.38;50.47;99138.53;4852255;28;105062;-83
2020/12/02 05:13:22;;;;;;;;;65.00;49.75;;;;;10.38;50.38;99135.81;4859707;28;104072;-82
2020/12/02 05:16:23;;;;;;;;;66.50;50.00;;;;;10.35;49.98;99144.31;4854682;28;102519;-83
2020/12/02 05:19:14;;;;;;;;;64.33;50.00;;;;;10.34;48.22;99145.34;4784569;28;103066;-84
2020/12/02 05:21:43;;;;;;;;;67.25;52.00;;;;;10.20;50.15;99151.56;4800612;28;109086;-84
2020/12/02 05:24:18;;;;;;;;;70.75;50.00;;;;;10.22;49.46;99141.41;4859595;28;102590;-83
2020/12/02 05:26:46;;;;;;;;;68.00;50.75;;;;;10.25;49.39;99143.75;4855471;28;102757;-82
2020/12/02 05:29:29;;;;;;;;;66.67;50.67;;;;;10.26;49.80;99142.72;4860057;28;103931;-82
2020/12/02 05:32:02;;;;;;;;;64.75;48.50;;;;;10.25;49.68;99139.19;4857239;28;109078;-82
2020/12/02 05:34:30;;;;;;;;;67.75;49.25;;;;;10.24;49.87;99142.91;4857873;28;102488;-82
2020/12/02 05:36:57;;;;;;;;;60.00;47.50;;;;;10.25;49.91;99141.03;4850674;28;103835;-82
2020/12/02 05:39:41;;;;;;;;;68.50;49.00;;;;;10.22;49.94;99139.53;4853953;28;103956;-82
2020/12/02 05:42:12;;;;;;;;;66.75;47.50;;;;;10.21;49.93;99143.28;4794813;28;108801;-82
2020/12/02 05:44:41;;;;;;;;;67.75;46.50;;;;;10.20;49.58;99140.75;4856274;28;104612;-82
2020/12/02 05:47:13;;;;;;;;;63.00;48.00;;;;;10.19;49.79;99139.91;4863692;28;103901;-82
2020/12/02 05:50:00;;;;;;;;;61.50;48.00;;;;;10.17;49.98;99146.53;4863089;28;102407;-82
2020/12/02 05:52:34;;;;;;;;;59.25;47.25;;;;;10.16;50.17;99139.44;4856656;28;108312;-82
2020/12/02 05:55:10;;;;;;;;;61.75;46.75;;;;;10.15;49.82;99140.44;4855010;28;106056;-83
2020/12/02 05:57:59;;;;;;;;;61.00;43.00;;;;;10.13;50.34;99126.28;4780829;28;104038;-83
2020/12/02 06:00:28;;;;;;;;;69.00;49.00;;;;;10.12;50.24;99141.66;4822809;28;102881;-84
2020/12/02 06:02:55;;;;;;;;;62.25;47.00;;;;;10.11;50.17;99137.28;4816414;28;104098;-84
2020/12/02 06:05:22;;;;;;;;;55.25;43.50;;;;;10.10;50.17;99135.59;4847290;28;102852;-83
2020/12/02 06:07:50;;;;;;;;;65.50;50.00;;;;;10.08;50.33;99134.94;4845187;28;102803;-84
2020/12/02 06:10:37;;;;;;;;;55.50;45.25;;;;;10.09;50.32;99133.91;4853966;28;103597;-84
2020/12/02 06:13:04;;;;;;;;;59.75;47.50;;;;;10.07;50.64;99138.66;4844787;28;109078;-84
2020/12/02 06:15:34;;;;;;;;;57.75;45.25;;;;;10.07;50.40;99135.97;4866720;28;102596;-84
2020/12/02 06:18:21;;;;;;;;;61.00;46.75;;;;;10.06;50.46;99133.44;4852716;28;102629;-84
2020/12/02 06:20:49;;;;;;;;;58.75;46.75;;;;;10.04;50.39;99132.78;4772850;28;102250;-83
2020/12/02 06:23:15;;;;;;;;;60.00;45.75;;;;;10.02;50.86;99140.22;4853344;28;104056;-83
2020/12/02 06:25:48;;;;;;;;;58.75;46.25;;;;;10.01;50.64;99135.84;4854042;28;102974;-83
2020/12/02 06:28:35;;;;;;;;;60.00;45.00;;;;;10.00;50.71;99139.56;4851560;28;102149;-84
2020/12/02 06:31:05;;;;;;;;;57.75;46.00;;;;;9.99;50.53;99138.75;4858329;28;102669;-82
2020/12/02 06:33:37;;;;;;;;;61.00;46.50;;;;;9.97;50.77;99146.19;4855533;28;104043;-82
2020/12/02 06:36:27;;;;;;;;;59.00;45.50;;;;;9.96;50.83;99146.38;4851589;28;102295;-83
2020/12/02 06:38:55;;;;;;;;;66.25;46.25;;;;;9.95;50.93;99142.00;4852208;28;103033;-84
2020/12/02 06:41:38;;;;;;;;;57.50;46.00;;;;;9.94;50.81;99145.72;4859048;28;105606;-84
2020/12/02 06:44:13;;;;;;;;;58.00;45.00;;;;;9.93;50.70;99152.13;4858177;28;109567;-83
2020/12/02 06:46:55;;;;;;;;;60.00;46.00;;;;;9.93;50.87;99154.84;4850800;28;102506;-83
2020/12/02 06:49:23;;;;;;;;;56.25;45.75;;;;;9.93;50.81;99144.03;4855777;28;103297;-83
2020/12/02 06:51:59;;;;;;;;;55.25;43.25;;;;;9.92;50.76;99147.75;4858524;28;102603;-84
2020/12/02 06:54:29;;;;;;;;;56.75;45.00;;;;;9.91;50.64;99151.47;4856969;28;104409;-83
2020/12/02 06:57:26;;;;;;;;;60.00;43.00;;;;;9.90;50.53;99145.25;4854933;28;102277;-83
2020/12/02 06:59:57;;;;;;;;;55.50;43.25;;;;;9.89;51.01;99148.13;4798961;28;102281;-84
2020/12/02 07:02:32;;;;;;;;;60.50;44.00;;;;;9.85;51.06;99145.81;4858551;28;102311;-83
2020/12/02 07:04:59;;;;;;;;;56.00;44.25;;;;;9.85;51.51;99140.41;4846987;28;108828;-83
2020/12/02 07:07:26;;;;;;;;;60.75;44.50;;;;;9.85;51.10;99142.25;4854062;28;103235;-83
2020/12/02 07:09:53;;;;;;;;;53.00;41.75;;;;;9.85;51.23;99140.41;4861419;28;103230;-83
2020/12/02 07:12:20;;;;;;;;;58.25;44.25;;;;;9.85;50.64;99139.56;4862206;28;102618;-83
2020/12/02 07:14:47;;;;;;;;;60.00;44.75;;;;;9.86;51.07;99139.34;4858057;28;105365;-83
2020/12/02 07:17:14;;;;;;;;;61.75;44.50;;;;;9.89;50.97;99137.31;4870328;28;102604;-84
2020/12/02 07:19:43;;;;;;;;;54.25;40.75;;;;;9.91;51.06;99135.25;4857992;28;102446;-84
2020/12/02 07:22:27;;;;;;;;;54.75;42.50;;;;;9.93;50.90;99133.22;4859178;28;103090;-84
2020/12/02 07:24:59;;;;;;;;;56.00;42.50;;;;;9.91;51.19;99140.66;4869993;28;103705;-84
2020/12/02 07:27:25;;;;;;;;;53.00;41.25;;;;;9.90;51.36;99144.41;4854221;28;102303;-84
2020/12/02 07:29:59;;;;;;;;;51.25;41.25;;;;;9.91;50.85;99127.16;4861678;28;102328;-84
2020/12/02 07:32:26;;;;;;;;;61.75;44.25;;;;;9.90;50.89;99128.22;4863381;28;102777;-83
2020/12/02 07:35:13;;;;;;;;;50.50;38.50;;;;;9.91;50.77;99137.97;4854409;28;104231;-84
2020/12/02 07:37:40;;;;;;;;;53.75;41.00;;;;;9.89;50.78;99126.53;4806206;28;102725;-84
2020/12/02 07:40:07;;;;;;;;;50.00;38.50;;;;;9.88;50.64;99125.69;4861944;28;102532;-83
2020/12/02 07:42:37;;;;;;;;;49.25;39.25;;;;;9.86;50.86;99128.56;4861283;28;102328;-82
2020/12/02 07:45:11;;;;;;;;;48.00;39.25;;;;;9.88;51.49;99136.47;4867926;28;104392;-83
2020/12/02 07:47:38;;;;;;;;;56.50;42.00;;;;;9.87;51.09;99145.59;4840144;28;102850;-83
2020/12/02 07:50:43;;;;;;;;;47.00;38.50;;;;;9.87;51.08;99140.19;4859649;28;102065;-83
2020/12/02 07:53:19;;;;;;;;;52.25;39.75;;;;;9.84;50.90;99144.13;4810845;28;103453;-84
2020/12/02 07:55:47;;;;;;;;;50.50;41.00;;;;;9.84;51.03;99141.41;4855722;28;104055;-83
2020/12/02 07:58:27;;;;;;;;;53.75;40.75;;;;;9.84;50.84;99130.63;4864321;28;102509;-82
2020/12/02 08:00:54;;;;;;;;;44.00;38.50;;;;;9.85;50.96;99131.47;4848218;28;102323;-82
2020/12/02 08:03:38;;;;;;;;;54.50;40.00;;;;;9.85;51.10;99120.66;4862027;28;102253;-82
2020/12/02 08:06:11;;;;;;;;;53.50;39.00;;;;;9.85;51.01;99121.50;4824260;28;108207;-82
2020/12/02 08:08:37;;;;;;;;;53.75;40.00;;;;;9.85;50.55;99115.25;4858634;28;103266;-82
2020/12/02 08:11:15;;;;;;;;;49.75;39.00;;;;;9.84;51.14;99124.38;4869767;28;102897;-82
2020/12/02 08:13:55;;;;;;;;;47.00;37.25;;;;;9.82;50.99;99121.84;4874069;28;102245;-82
2020/12/02 08:16:27;;;;;;;;;52.25;40.00;;;;;9.81;51.15;99114.78;4870162;28;104086;-82
2020/12/02 08:19:10;;;;;;;;;51.25;39.00;;;;;9.81;51.36;99124.75;4794195;28;103779;-82
2020/12/02 08:21:38;;;;;;;;;47.25;37.25;;;;;9.81;51.02;99122.06;4871954;28;102506;-82
2020/12/02 08:24:31;;;;;;;;;52.75;37.50;;;;;9.81;50.81;99125.59;4865943;28;102482;-82
2020/12/02 08:27:11;;;;;;;;;48.50;36.25;;;;;9.80;51.42;99118.50;4858014;28;108976;-82
2020/12/02 08:29:38;;;;;;;;;54.00;39.00;;;;;9.80;51.40;99123.06;4862303;28;102726;-82
2020/12/02 08:32:32;;;;;;;;;47.25;37.00;;;;;9.80;51.44;99123.91;4852976;28;102243;-82
2020/12/02 08:34:59;;;;;;;;;47.50;39.50;;;;;9.80;51.26;99118.50;4847963;28;102631;-82
2020/12/02 08:37:34;;;;;;;;;42.75;36.75;;;;;9.79;50.92;99122.22;4877672;28;104112;-82
2020/12/02 08:40:20;;;;;;;;;42.50;36.25;;;;;9.80;51.00;99123.91;4859285;28;102144;-82
2020/12/02 08:42:46;;;;;;;;;39.25;34.50;;;;;9.81;51.44;99119.34;4808305;28;102663;-82
2020/12/02 08:45:21;;;;;;;;;49.75;37.25;;;;;9.80;50.73;99129.31;4863403;28;102222;-82
2020/12/02 08:47:53;;;;;;;;;54.50;38.00;;;;;9.76;50.92;99122.59;4859325;28;105715;-82
2020/12/02 08:50:25;;;;;;;;;47.00;34.75;;;;;9.78;50.71;99125.94;4876609;28;102463;-82
2020/12/02 08:52:53;;;;;;;;;43.00;35.50;;;;;9.80;51.07;99128.47;4863460;28;102336;-82
2020/12/02 08:55:20;;;;;;;;;41.50;34.75;;;;;9.79;50.95;99121.38;4866690;28;102648;-82
2020/12/02 08:57:47;;;;;;;;;37.25;32.75;;;;;9.77;51.18;99107.25;4862833;28;104081;-82
2020/12/02 09:00:18;;;;;;;;;46.75;37.00;;;;;9.79;51.10;99116.81;4865511;28;103771;-82
2020/12/02 09:02:44;;;;;;;;;43.75;36.00;;;;;9.78;51.62;99109.75;4859311;28;102483;-82
2020/12/02 09:05:11;;;;;;;;;40.50;34.00;;;;;9.77;51.01;99108.06;4862138;28;102244;-82
2020/12/02 09:07:37;;;;;;;;;48.75;34.00;;;;;9.77;51.04;99105.34;4874792;28;104326;-82
2020/12/02 09:10:05;;;;;;;;;44.75;33.50;;;;;9.79;51.05;99100.63;4863957;28;102186;-82
2020/12/02 09:12:31;;;;;;;;;37.00;33.75;;;;;9.77;51.29;99097.25;4868469;28;102158;-82
2020/12/02 09:14:58;;;;;;;;;41.25;34.00;;;;;9.77;50.65;99094.53;4860981;28;102242;-82
2020/12/02 09:17:25;;;;;;;;;40.00;34.00;;;;;9.78;51.02;99100.78;4860781;28;104404;-82
2020/12/02 09:19:52;;;;;;;;;40.25;35.50;;;;;9.80;51.31;99098.75;4860688;28;102138;-82
2020/12/02 09:22:18;;;;;;;;;43.75;37.00;;;;;9.78;51.06;99104.34;4876752;28;103257;-82
2020/12/02 09:24:46;;;;;;;;;45.50;36.25;;;;;9.78;51.09;99093.53;4862120;28;102252;-82
2020/12/02 09:27:12;;;;;;;;;39.75;34.75;;;;;9.78;51.18;99093.53;4862350;28;104082;-82
2020/12/02 09:29:39;;;;;;;;;39.00;32.75;;;;;9.78;51.15;99096.22;4868765;28;102675;-82
2020/12/02 09:32:06;;;;;;;;;42.00;34.00;;;;;9.78;50.96;99093.53;4860943;28;102224;-82
2020/12/02 09:34:33;;;;;;;;;38.50;34.00;;;;;9.77;50.78;99086.44;4865317;28;102577;-82
2020/12/02 09:37:00;;;;;;;;;36.50;31.50;;;;;9.78;50.96;99082.72;4867980;28;109845;-82
2020/12/02 09:39:28;;;;;;;;;42.25;33.25;;;;;9.79;50.92;99083.56;4865564;28;102436;-82
2020/12/02 09:42:29;;;;;;;;;42.00;32.75;;;;;9.79;51.11;99078.16;4876728;28;102312;-82
2020/12/02 09:45:05;;;;;;;;;42.50;33.25;;;;;9.80;51.03;99075.28;4801285;28;102598;-82
2020/12/02 09:47:31;;;;;;;;;39.50;29.25;;;;;9.79;51.19;99070.06;4855058;28;108830;-82
2020/12/02 09:49:58;;;;;;;;;35.25;30.50;;;;;9.79;50.86;99075.47;4854542;28;102167;-82
2020/12/02 09:52:44;;;;;;;;;39.75;34.00;;;;;9.79;50.85;99070.91;4861656;28;102528;-82
2020/12/02 09:55:14;;;;;;;;;42.25;34.00;;;;;9.77;51.18;99070.25;4811835;28;102830;-82
2020/12/02 09:57:40;;;;;;;;;37.75;33.25;;;;;9.77;51.07;99064.84;4862398;28;104327;-82
2020/12/02 10:00:08;;;;;;;;;34.25;29.50;;;;;9.74;51.41;99059.81;4862633;28;102157;-82
2020/12/02 10:02:35;;;;;;;;;38.00;32.00;;;;;9.78;51.04;99058.41;4861118;28;102139;-82
2020/12/02 10:05:39;;;;;;;;;35.00;28.50;;;;;9.79;50.98;99060.09;4860733;28;102149;-82
2020/12/02 10:08:39;;;;;;;;;38.25;33.75;;;;;9.78;50.86;99050.31;4804945;28;108909;-82
2020/12/02 10:11:16;;;;;;;;;37.25;32.25;;;;;9.80;50.87;99051.00;4884570;28;102416;-82
2020/12/02 10:14:15;;;;;;;;;36.75;31.25;;;;;9.80;51.10;99052.84;4863312;28;102416;-82
2020/12/02 10:17:10;;;;;;;;;32.00;26.75;;;;;9.77;50.97;99043.25;4754149;28;103748;-82
2020/12/02 10:19:41;;;;;;;;;37.25;31.00;;;;;9.79;50.89;99045.75;4859642;28;108820;-82
2020/12/02 10:22:28;;;;;;;;;35.00;28.25;;;;;9.79;50.88;99040.38;4866815;28;102491;-82
2020/12/02 10:25:03;;;;;;;;;42.75;29.75;;;;;9.78;51.12;99038.69;4853701;28;102697;-82
2020/12/02 10:27:54;;;;;;;;;31.25;28.25;;;;;9.77;50.84;99032.44;4860927;28;102651;-82
2020/12/02 10:30:23;;;;;;;;;26.75;25.00;;;;;9.78;51.07;99038.69;4777583;28;108909;-82
2020/12/02 10:33:37;;;;;;;;;35.75;28.00;;;;;9.77;51.00;99034.31;4856779;28;102197;-82
2020/12/02 10:36:04;;;;;;;;;33.50;28.75;;;;;9.77;50.64;99032.44;4785822;28;102397;-82
2020/12/02 10:38:43;;;;;;;;;30.75;26.50;;;;;9.77;51.42;99032.44;4861283;28;103690;-82
2020/12/02 10:41:38;;;;;;;;;28.25;25.00;;;;;9.79;50.87;99029.56;4808380;28;108782;-82
2020/12/02 10:44:38;;;;;;;;;39.50;30.50;;;;;9.78;51.20;99031.41;4859542;28;102145;-82
2020/12/02 10:47:05;;;;;;;;;31.75;28.00;;;;;9.78;50.93;99023.31;4803143;28;103580;-82
2020/12/02 10:49:35;;;;;;;;;35.50;29.25;;;;;9.76;50.54;99017.28;4863851;28;102707;-82
2020/12/02 10:52:02;;;;;;;;;26.50;21.00;;;;;9.77;51.21;99027.03;4863324;28;108365;-82
2020/12/02 10:54:35;;;;;;;;;32.25;28.50;;;;;9.80;50.97;99031.25;4859659;28;102518;-82
2020/12/02 10:57:22;;;;;;;;;32.25;28.00;;;;;9.79;50.75;99011.50;4860667;28;102653;-82
2020/12/02 10:59:54;;;;;;;;;29.75;27.50;;;;;9.80;50.97;99017.75;4795443;28;102512;-82
2020/12/02 11:02:23;;;;;;;;;30.50;24.75;;;;;9.80;51.07;99017.75;4861850;28;104907;-82
2020/12/02 11:04:50;;;;;;;;;26.25;23.00;;;;;9.82;50.81;99018.38;4853618;28;102261;-82
2020/12/02 11:07:23;;;;;;;;;28.50;23.25;;;;;9.82;50.98;99012.97;4857210;28;103803;-82
2020/12/02 11:10:16;;;;;;;;;31.25;25.00;;;;;9.82;50.91;99015.69;4862608;28;102282;-82
2020/12/02 11:12:48;;;;;;;;;31.00;24.75;;;;;9.82;50.81;99019.22;4804762;28;108959;-82
2020/12/02 11:15:30;;;;;;;;;30.00;26.25;;;;;9.83;50.96;99003.84;4855187;28;103434;-82
2020/12/02 11:18:16;;;;;;;;;28.75;25.00;;;;;9.83;51.13;99001.16;4852202;28;102126;-82
2020/12/02 11:20:48;;;;;;;;;28.75;25.50;;;;;9.83;51.22;98993.91;4795952;28;102568;-82
2020/12/02 11:23:32;;;;;;;;;27.50;24.25;;;;;9.85;50.98;98991.03;4865408;28;104092;-82
2020/12/02 11:26:12;;;;;;;;;32.75;27.00;;;;;9.81;50.80;98982.47;4852853;28;102715;-82
2020/12/02 11:28:44;;;;;;;;;32.00;26.00;;;;;9.84;50.89;98990.19;4850644;28;102166;-82
2020/12/02 11:31:47;;;;;;;;;27.25;25.25;;;;;9.83;50.61;98983.09;4861392;28;102195;-82
2020/12/02 11:34:47;;;;;;;;;29.00;25.00;;;;;9.84;50.72;98979.38;4796604;28;108973;-82
2020/12/02 11:37:18;;;;;;;;;25.50;22.00;;;;;9.83;51.26;98983.09;4801866;28;102755;-82
2020/12/02 11:40:00;;;;;;;;;28.25;25.00;;;;;9.83;50.71;98975.00;4857447;28;102190;-82
2020/12/02 11:42:45;;;;;;;;;28.75;25.00;;;;;9.83;50.96;98969.59;4859554;28;102214;-82